Mobo, Philippines
Current Conditions -  °F | °C
As of 4:00 AM on Saturday 01 Nov 2014 (Local Time) from RPVM Reporting Station
Overcast Overcast  
Wind Chill: 81°   Ceiling: 9000
Heat Index: 86°   Visibility: 6mi
Dew Point: 75°   Wind: 5mph
Humidity: 84%   Direction: 10°N
Pressure: 29.71"   Gusts: NA
Location:  12.34°N, 123.66°E
Report Text: RPVM 312000Z 01004KT 9999 SCT020 OVC090 27/24 Q1006 RMK A2971
Loading
Personal Weather Stations






























Interactive Weather Map
Tropical Storm Tracking
New forecast layout! Learn more

10-Day Weather Forecast

Advertisements
Track Severe Weather on mobile